Historyczne dane pomiarowe

Dodano dane terminowe – wersja testowa.

Dane z okresu 1951-2019

Wersja bazy: 1.34 [2019-03-16, lista zmian], aktualizacja planowana na 2019-04-15

Dane meteo z obszaru Polski uzyskane na podstawie danych udostępnionych przez Instytut Meteorologii i Gospodarki Wodnej – Państwowy Instytut Badawczy.

 

Wybierz Datę:    

       

TemperaturaWilgotnośćZachmurzenieWiatrCiśnienieWidzialnośćZjawiska
 Data    tng td wb rh cc ccl cl cm ch dir g1 g2 mslp ppp      
1999-07-07 00:00:00 17.8--- 16.9 17.294wxwxwxwx1wx--1011.7 989.9 0.0---wx
1999-07-07 01:00:00 17.4--- 16.5 16.894wxwxwxwx2wx--1011.6 989.8----wx
1999-07-07 02:00:00 17.4--- 16.5 16.894wxwxwxwx2wx--1011.9 990.1----wx
1999-07-07 03:00:00 17.4--- 16.5 16.894wxwxwxwxwx2wx--1012.0 990.2----wx
1999-07-07 04:00:00 18.4--- 16.5 17.289wxwxwxwxwx3wx--1011.6 989.8----wx
1999-07-07 05:00:00 17.6--- 16.3 16.892wxwxwx7wx--1013.1 991.2----wx
1999-07-07 06:00:00 17.2--- 16.6 16.896wxwxwx3wx--1012.6 990.7 0.4---wxw1
1999-07-07 07:00:00 18.1--- 16.5 17.191wxwxwx2wx--1012.3 990.5----wxw1
1999-07-07 08:00:00 16.9--- 16.4 16.697wxwxwx3wx--1013.1 991.2----wxw1
1999-07-07 09:00:00 17.7--- 16.8 17.194wxwxwx2wx--1013.3 991.5----wxw1
1999-07-07 10:00:00 19.7--- 18.3 18.892wxwxwx1wx--1013.8 992.1----wx
1999-07-07 11:00:00 22.7--- 19.1 20.380wxwxwx1wx--1013.9 992.4----wx
1999-07-07 12:00:00 22.1--- 18.6 19.881wxwxwx5wx--1014.0 992.5 10.8---wxw1
1999-07-07 13:00:00 22.4--- 18.5 19.879wxwxwx5wx--1014.8 993.3----wx
1999-07-07 14:00:00 21.3--- 17.6 18.980wxwxwx4wx--1015.6 994.0----wx
1999-07-07 15:00:00 20.6--- 17.7 18.783wxwxwx3wx--1016.4 994.7----wx
1999-07-07 16:00:00 20.5--- 17.1 18.381wxwxwx2wx--1016.5 994.8----wx
1999-07-07 17:00:00 20.5--- 17.4 18.583wxwxwx2wx--1017.0 995.3----wx
1999-07-07 18:00:00 20.2--- 17.4 18.484wxwxwx2wx--1017.6 995.8 0.0---wx
1999-07-07 19:00:00 19.5--- 18.0 18.591wxwxwx1wx--1018.1 996.3----wx
1999-07-07 20:00:00 19.2--- 17.8 18.392wxwxwx2wx--1018.2 996.4----wx
1999-07-07 21:00:00 18.4--- 17.2 17.692wxwxwx3wx--1017.8 995.9----wx
1999-07-07 22:00:00 17.7--- 16.4 16.992wxwxwx3wx--1018.4 996.4----wx
1999-07-07 23:00:00 17.5--- 16.2 16.792wxwxwx2wx--1018.8 996.8----wx

 

Źródłem pochodzenia danych jest Instytut Meteorologii i Gospodarki Wodnej – Państwowy Instytut Badawczy. Dane Instytutu Meteorologii i Gospodarki Wodnej – Państwowego Instytutu Badawczego zostały przetworzone.

Dane źródłowe można odnaleźć na stronie https://dane.imgw.pl